sensor_id;sensor_type;location;lat;lon;timestamp;P1;durP1;ratioP1;P2;durP2;ratioP2
15451;SDS011;7827;53.594;9.938;2023-02-15T00:00:21;89.77;;;40.67;;
15451;SDS011;7827;53.594;9.938;2023-02-15T00:02:49;103.60;;;39.40;;
15451;SDS011;7827;53.594;9.938;2023-02-15T00:05:19;85.63;;;39.70;;
15451;SDS011;7827;53.594;9.938;2023-02-15T00:07:47;117.90;;;40.00;;
15451;SDS011;7827;53.594;9.938;2023-02-15T00:10:15;91.67;;;39.40;;
15451;SDS011;7827;53.594;9.938;2023-02-15T00:12:44;85.17;;;40.07;;
15451;SDS011;7827;53.594;9.938;2023-02-15T00:15:13;135.73;;;39.30;;
15451;SDS011;7827;53.594;9.938;2023-02-15T00:17:41;93.87;;;37.93;;
15451;SDS011;7827;53.594;9.938;2023-02-15T00:20:09;169.90;;;42.23;;
15451;SDS011;7827;53.594;9.938;2023-02-15T00:22:39;85.70;;;39.80;;
15451;SDS011;7827;53.594;9.938;2023-02-15T00:25:08;89.13;;;41.37;;
15451;SDS011;7827;53.594;9.938;2023-02-15T00:27:36;81.53;;;39.33;;
15451;SDS011;7827;53.594;9.938;2023-02-15T00:30:05;154.50;;;42.73;;
15451;SDS011;7827;53.594;9.938;2023-02-15T00:32:35;154.87;;;42.13;;
15451;SDS011;7827;53.594;9.938;2023-02-15T00:35:03;113.60;;;40.30;;
15451;SDS011;7827;53.594;9.938;2023-02-15T00:37:33;210.63;;;45.70;;
15451;SDS011;7827;53.594;9.938;2023-02-15T00:40:04;179.37;;;46.00;;
15451;SDS011;7827;53.594;9.938;2023-02-15T00:42:34;91.70;;;40.90;;
15451;SDS011;7827;53.594;9.938;2023-02-15T00:45:02;104.23;;;42.87;;
15451;SDS011;7827;53.594;9.938;2023-02-15T00:47:31;196.90;;;43.63;;
15451;SDS011;7827;53.594;9.938;2023-02-15T00:50:00;93.77;;;40.40;;
15451;SDS011;7827;53.594;9.938;2023-02-15T00:52:29;104.73;;;40.90;;
15451;SDS011;7827;53.594;9.938;2023-02-15T00:54:57;176.07;;;43.27;;
15451;SDS011;7827;53.594;9.938;2023-02-15T00:57:27;103.60;;;39.87;;
15451;SDS011;7827;53.594;9.938;2023-02-15T00:59:55;140.07;;;41.80;;
15451;SDS011;7827;53.594;9.938;2023-02-15T01:02:24;109.23;;;42.30;;
15451;SDS011;7827;53.594;9.938;2023-02-15T01:04:52;168.23;;;44.37;;
15451;SDS011;7827;53.594;9.938;2023-02-15T01:07:21;100.43;;;41.23;;
15451;SDS011;7827;53.594;9.938;2023-02-15T01:09:49;93.37;;;41.50;;
15451;SDS011;7827;53.594;9.938;2023-02-15T01:12:18;135.07;;;40.67;;
15451;SDS011;7827;53.594;9.938;2023-02-15T01:14:48;87.80;;;39.97;;
15451;SDS011;7827;53.594;9.938;2023-02-15T01:17:16;86.97;;;40.90;;
15451;SDS011;7827;53.594;9.938;2023-02-15T01:19:45;123.70;;;41.87;;
15451;SDS011;7827;53.594;9.938;2023-02-15T01:22:14;235.67;;;45.57;;
15451;SDS011;7827;53.594;9.938;2023-02-15T01:24:42;273.67;;;47.93;;
15451;SDS011;7827;53.594;9.938;2023-02-15T01:27:10;163.40;;;43.00;;
15451;SDS011;7827;53.594;9.938;2023-02-15T01:29:39;136.43;;;41.97;;
15451;SDS011;7827;53.594;9.938;2023-02-15T01:32:08;120.50;;;39.57;;
15451;SDS011;7827;53.594;9.938;2023-02-15T01:34:37;93.83;;;40.07;;
15451;SDS011;7827;53.594;9.938;2023-02-15T01:37:06;151.50;;;40.93;;
15451;SDS011;7827;53.594;9.938;2023-02-15T01:39:34;105.10;;;41.07;;
15451;SDS011;7827;53.594;9.938;2023-02-15T01:42:03;110.83;;;40.53;;
15451;SDS011;7827;53.594;9.938;2023-02-15T01:44:48;88.47;;;40.20;;
15451;SDS011;7827;53.594;9.938;2023-02-15T01:47:22;162.73;;;41.53;;
15451;SDS011;7827;53.594;9.938;2023-02-15T01:50:03;213.73;;;42.80;;
15451;SDS011;7827;53.594;9.938;2023-02-15T01:52:40;90.93;;;39.80;;
15451;SDS011;7827;53.594;9.938;2023-02-15T01:55:14;210.53;;;43.57;;
15451;SDS011;7827;53.594;9.938;2023-02-15T01:58:06;167.40;;;43.30;;
15451;SDS011;7827;53.594;9.938;2023-02-15T02:00:35;102.30;;;40.00;;
15451;SDS011;7827;53.594;9.938;2023-02-15T02:03:22;149.90;;;42.30;;
15451;SDS011;7827;53.594;9.938;2023-02-15T02:10:22;100.20;;;40.70;;
15451;SDS011;7827;53.594;9.938;2023-02-15T02:13:09;91.37;;;40.13;;
15451;SDS011;7827;53.594;9.938;2023-02-15T02:15:57;145.00;;;42.13;;
15451;SDS011;7827;53.594;9.938;2023-02-15T02:18:40;89.73;;;40.20;;
15451;SDS011;7827;53.594;9.938;2023-02-15T02:28:08;103.40;;;40.57;;
15451;SDS011;7827;53.594;9.938;2023-02-15T02:31:03;267.27;;;46.37;;
15451;SDS011;7827;53.594;9.938;2023-02-15T02:37:12;189.90;;;43.73;;
15451;SDS011;7827;53.594;9.938;2023-02-15T02:39:52;164.27;;;41.93;;
15451;SDS011;7827;53.594;9.938;2023-02-15T02:42:33;116.90;;;39.07;;
15451;SDS011;7827;53.594;9.938;2023-02-15T02:45:07;96.87;;;40.03;;
15451;SDS011;7827;53.594;9.938;2023-02-15T02:47:42;212.77;;;43.53;;
15451;SDS011;7827;53.594;9.938;2023-02-15T02:50:18;117.00;;;39.37;;
15451;SDS011;7827;53.594;9.938;2023-02-15T02:52:53;121.73;;;41.43;;
15451;SDS011;7827;53.594;9.938;2023-02-15T02:55:25;234.27;;;44.53;;
15451;SDS011;7827;53.594;9.938;2023-02-15T02:58:00;162.50;;;40.40;;
15451;SDS011;7827;53.594;9.938;2023-02-15T03:00:34;113.90;;;40.90;;
15451;SDS011;7827;53.594;9.938;2023-02-15T03:03:08;93.57;;;41.90;;
15451;SDS011;7827;53.594;9.938;2023-02-15T03:05:43;101.27;;;41.90;;
15451;SDS011;7827;53.594;9.938;2023-02-15T03:08:16;167.80;;;42.20;;
15451;SDS011;7827;53.594;9.938;2023-02-15T03:10:52;97.67;;;40.90;;
15451;SDS011;7827;53.594;9.938;2023-02-15T03:13:24;92.47;;;41.40;;
15451;SDS011;7827;53.594;9.938;2023-02-15T03:15:53;103.23;;;41.40;;
15451;SDS011;7827;53.594;9.938;2023-02-15T03:18:41;147.47;;;41.97;;
15451;SDS011;7827;53.594;9.938;2023-02-15T03:21:21;179.27;;;42.60;;
15451;SDS011;7827;53.594;9.938;2023-02-15T03:23:59;119.07;;;40.37;;
15451;SDS011;7827;53.594;9.938;2023-02-15T03:26:34;113.10;;;40.40;;
15451;SDS011;7827;53.594;9.938;2023-02-15T03:29:06;119.23;;;41.20;;
15451;SDS011;7827;53.594;9.938;2023-02-15T03:31:38;97.07;;;40.80;;
15451;SDS011;7827;53.594;9.938;2023-02-15T03:34:10;113.27;;;40.87;;
15451;SDS011;7827;53.594;9.938;2023-02-15T03:36:45;116.83;;;39.43;;
15451;SDS011;7827;53.594;9.938;2023-02-15T03:39:20;96.60;;;39.63;;
15451;SDS011;7827;53.594;9.938;2023-02-15T03:41:59;133.53;;;41.87;;
15451;SDS011;7827;53.594;9.938;2023-02-15T03:44:40;412.63;;;50.13;;
15451;SDS011;7827;53.594;9.938;2023-02-15T03:47:19;238.30;;;42.93;;
15451;SDS011;7827;53.594;9.938;2023-02-15T03:49:53;105.97;;;39.40;;
15451;SDS011;7827;53.594;9.938;2023-02-15T03:52:29;106.07;;;40.23;;
15451;SDS011;7827;53.594;9.938;2023-02-15T03:55:00;162.07;;;42.00;;
15451;SDS011;7827;53.594;9.938;2023-02-15T03:57:28;132.87;;;40.93;;
15451;SDS011;7827;53.594;9.938;2023-02-15T04:00:26;111.03;;;37.70;;
15451;SDS011;7827;53.594;9.938;2023-02-15T04:03:22;129.63;;;40.20;;
15451;SDS011;7827;53.594;9.938;2023-02-15T04:06:00;139.17;;;39.37;;
15451;SDS011;7827;53.594;9.938;2023-02-15T04:08:31;96.97;;;40.07;;
15451;SDS011;7827;53.594;9.938;2023-02-15T04:11:13;132.00;;;39.87;;
15451;SDS011;7827;53.594;9.938;2023-02-15T04:13:42;343.43;;;47.70;;
15451;SDS011;7827;53.594;9.938;2023-02-15T04:16:10;185.50;;;43.10;;
15451;SDS011;7827;53.594;9.938;2023-02-15T04:18:39;190.70;;;42.70;;
15451;SDS011;7827;53.594;9.938;2023-02-15T04:21:28;116.87;;;40.63;;
15451;SDS011;7827;53.594;9.938;2023-02-15T04:24:16;176.10;;;42.30;;
15451;SDS011;7827;53.594;9.938;2023-02-15T04:27:02;105.93;;;41.33;;
15451;SDS011;7827;53.594;9.938;2023-02-15T04:29:33;96.80;;;39.03;;
15451;SDS011;7827;53.594;9.938;2023-02-15T04:32:01;192.17;;;41.57;;
15451;SDS011;7827;53.594;9.938;2023-02-15T04:34:29;147.17;;;40.07;;
15451;SDS011;7827;53.594;9.938;2023-02-15T04:36:58;136.93;;;40.30;;
15451;SDS011;7827;53.594;9.938;2023-02-15T04:39:27;227.20;;;48.27;;
15451;SDS011;7827;53.594;9.938;2023-02-15T04:41:55;91.93;;;41.00;;
15451;SDS011;7827;53.594;9.938;2023-02-15T04:44:24;208.47;;;43.30;;
15451;SDS011;7827;53.594;9.938;2023-02-15T04:46:52;236.50;;;45.23;;
15451;SDS011;7827;53.594;9.938;2023-02-15T04:49:21;87.23;;;38.90;;
15451;SDS011;7827;53.594;9.938;2023-02-15T04:51:49;115.07;;;40.40;;
15451;SDS011;7827;53.594;9.938;2023-02-15T04:54:17;119.30;;;37.73;;
15451;SDS011;7827;53.594;9.938;2023-02-15T04:56:47;96.80;;;39.43;;
15451;SDS011;7827;53.594;9.938;2023-02-15T04:59:15;195.90;;;42.80;;
15451;SDS011;7827;53.594;9.938;2023-02-15T05:01:43;138.20;;;42.80;;
15451;SDS011;7827;53.594;9.938;2023-02-15T05:04:12;118.03;;;39.80;;
15451;SDS011;7827;53.594;9.938;2023-02-15T05:06:40;83.47;;;38.53;;
15451;SDS011;7827;53.594;9.938;2023-02-15T05:09:09;199.10;;;42.70;;
15451;SDS011;7827;53.594;9.938;2023-02-15T05:11:38;198.17;;;41.00;;
15451;SDS011;7827;53.594;9.938;2023-02-15T05:14:08;177.07;;;39.57;;
15451;SDS011;7827;53.594;9.938;2023-02-15T05:16:37;154.50;;;40.07;;
15451;SDS011;7827;53.594;9.938;2023-02-15T05:19:05;137.97;;;40.13;;
15451;SDS011;7827;53.594;9.938;2023-02-15T05:21:34;82.47;;;36.07;;
15451;SDS011;7827;53.594;9.938;2023-02-15T05:24:03;207.40;;;41.10;;
15451;SDS011;7827;53.594;9.938;2023-02-15T05:26:52;120.30;;;38.43;;
15451;SDS011;7827;53.594;9.938;2023-02-15T05:29:39;89.23;;;39.30;;
15451;SDS011;7827;53.594;9.938;2023-02-15T05:32:07;118.27;;;37.20;;
15451;SDS011;7827;53.594;9.938;2023-02-15T05:34:36;87.13;;;38.03;;
15451;SDS011;7827;53.594;9.938;2023-02-15T05:37:05;231.83;;;42.10;;
15451;SDS011;7827;53.594;9.938;2023-02-15T05:39:33;87.10;;;37.13;;
15451;SDS011;7827;53.594;9.938;2023-02-15T05:42:02;102.87;;;39.97;;
15451;SDS011;7827;53.594;9.938;2023-02-15T05:44:31;221.03;;;40.63;;
15451;SDS011;7827;53.594;9.938;2023-02-15T05:47:00;312.37;;;44.63;;
15451;SDS011;7827;53.594;9.938;2023-02-15T05:49:29;142.13;;;37.37;;
15451;SDS011;7827;53.594;9.938;2023-02-15T05:51:57;202.50;;;40.77;;
15451;SDS011;7827;53.594;9.938;2023-02-15T05:54:26;136.20;;;39.10;;
15451;SDS011;7827;53.594;9.938;2023-02-15T05:56:55;115.10;;;37.53;;
15451;SDS011;7827;53.594;9.938;2023-02-15T05:59:23;133.73;;;37.67;;
15451;SDS011;7827;53.594;9.938;2023-02-15T06:01:51;119.47;;;36.23;;
15451;SDS011;7827;53.594;9.938;2023-02-15T06:04:21;117.80;;;36.47;;
15451;SDS011;7827;53.594;9.938;2023-02-15T06:06:49;109.33;;;36.30;;
15451;SDS011;7827;53.594;9.938;2023-02-15T06:09:18;96.07;;;35.50;;
15451;SDS011;7827;53.594;9.938;2023-02-15T06:11:46;337.53;;;44.97;;
15451;SDS011;7827;53.594;9.938;2023-02-15T06:14:14;215.80;;;39.50;;
15451;SDS011;7827;53.594;9.938;2023-02-15T06:16:43;108.03;;;36.23;;
15451;SDS011;7827;53.594;9.938;2023-02-15T06:19:11;89.77;;;38.03;;
15451;SDS011;7827;53.594;9.938;2023-02-15T06:21:41;104.63;;;37.10;;
15451;SDS011;7827;53.594;9.938;2023-02-15T06:24:10;102.80;;;36.83;;
15451;SDS011;7827;53.594;9.938;2023-02-15T06:26:39;82.53;;;35.77;;
15451;SDS011;7827;53.594;9.938;2023-02-15T06:29:07;125.60;;;39.10;;
15451;SDS011;7827;53.594;9.938;2023-02-15T06:31:36;306.67;;;44.73;;
15451;SDS011;7827;53.594;9.938;2023-02-15T06:34:04;399.57;;;50.07;;
15451;SDS011;7827;53.594;9.938;2023-02-15T06:36:32;342.33;;;46.50;;
15451;SDS011;7827;53.594;9.938;2023-02-15T06:39:02;267.13;;;43.53;;
15451;SDS011;7827;53.594;9.938;2023-02-15T06:41:31;114.57;;;39.53;;
15451;SDS011;7827;53.594;9.938;2023-02-15T06:44:00;116.10;;;37.43;;
15451;SDS011;7827;53.594;9.938;2023-02-15T06:46:28;91.67;;;38.57;;
15451;SDS011;7827;53.594;9.938;2023-02-15T06:48:56;78.13;;;37.00;;
15451;SDS011;7827;53.594;9.938;2023-02-15T06:51:25;83.30;;;34.20;;
15451;SDS011;7827;53.594;9.938;2023-02-15T06:53:53;147.47;;;39.73;;
15451;SDS011;7827;53.594;9.938;2023-02-15T06:56:23;124.97;;;37.43;;
15451;SDS011;7827;53.594;9.938;2023-02-15T06:58:51;84.47;;;37.10;;
15451;SDS011;7827;53.594;9.938;2023-02-15T07:01:19;111.57;;;39.20;;
15451;SDS011;7827;53.594;9.938;2023-02-15T07:03:48;95.20;;;37.33;;
15451;SDS011;7827;53.594;9.938;2023-02-15T07:06:16;253.00;;;41.87;;
15451;SDS011;7827;53.594;9.938;2023-02-15T07:08:45;303.13;;;43.17;;
15451;SDS011;7827;53.594;9.938;2023-02-15T07:11:13;132.40;;;38.67;;
15451;SDS011;7827;53.594;9.938;2023-02-15T07:14:00;195.23;;;42.57;;
15451;SDS011;7827;53.594;9.938;2023-02-15T07:16:28;159.77;;;39.50;;
15451;SDS011;7827;53.594;9.938;2023-02-15T07:18:56;136.57;;;39.50;;
15451;SDS011;7827;53.594;9.938;2023-02-15T07:21:25;132.00;;;38.00;;
15451;SDS011;7827;53.594;9.938;2023-02-15T07:23:55;96.37;;;38.60;;
15451;SDS011;7827;53.594;9.938;2023-02-15T07:26:24;92.47;;;38.17;;
15451;SDS011;7827;53.594;9.938;2023-02-15T07:28:53;98.43;;;38.20;;
15451;SDS011;7827;53.594;9.938;2023-02-15T07:31:23;101.10;;;37.67;;
15451;SDS011;7827;53.594;9.938;2023-02-15T07:33:51;93.70;;;37.70;;
15451;SDS011;7827;53.594;9.938;2023-02-15T07:36:19;99.90;;;38.13;;
15451;SDS011;7827;53.594;9.938;2023-02-15T07:38:48;82.17;;;36.60;;
15451;SDS011;7827;53.594;9.938;2023-02-15T07:41:16;186.23;;;41.00;;
15451;SDS011;7827;53.594;9.938;2023-02-15T07:43:44;83.00;;;37.70;;
15451;SDS011;7827;53.594;9.938;2023-02-15T07:46:13;284.17;;;45.17;;
15451;SDS011;7827;53.594;9.938;2023-02-15T07:48:45;155.33;;;40.70;;
15451;SDS011;7827;53.594;9.938;2023-02-15T07:51:14;173.17;;;42.57;;
15451;SDS011;7827;53.594;9.938;2023-02-15T07:53:42;117.37;;;42.13;;
15451;SDS011;7827;53.594;9.938;2023-02-15T07:56:12;105.07;;;41.17;;
15451;SDS011;7827;53.594;9.938;2023-02-15T07:58:42;87.53;;;40.70;;
15451;SDS011;7827;53.594;9.938;2023-02-15T08:01:22;92.80;;;39.53;;
15451;SDS011;7827;53.594;9.938;2023-02-15T08:03:53;93.20;;;37.63;;
15451;SDS011;7827;53.594;9.938;2023-02-15T08:06:25;118.00;;;38.47;;
15451;SDS011;7827;53.594;9.938;2023-02-15T08:08:58;125.93;;;38.13;;
15451;SDS011;7827;53.594;9.938;2023-02-15T08:11:28;89.00;;;36.93;;
15451;SDS011;7827;53.594;9.938;2023-02-15T08:14:04;119.00;;;38.93;;
15451;SDS011;7827;53.594;9.938;2023-02-15T08:16:34;86.60;;;35.70;;
15451;SDS011;7827;53.594;9.938;2023-02-15T08:19:07;105.70;;;38.33;;
15451;SDS011;7827;53.594;9.938;2023-02-15T08:21:38;120.03;;;39.97;;
15451;SDS011;7827;53.594;9.938;2023-02-15T08:24:08;133.13;;;38.77;;
15451;SDS011;7827;53.594;9.938;2023-02-15T08:26:38;82.03;;;36.93;;
15451;SDS011;7827;53.594;9.938;2023-02-15T08:29:08;104.83;;;40.03;;
15451;SDS011;7827;53.594;9.938;2023-02-15T08:31:36;78.03;;;37.67;;
15451;SDS011;7827;53.594;9.938;2023-02-15T08:34:08;108.53;;;40.03;;
15451;SDS011;7827;53.594;9.938;2023-02-15T08:36:38;88.70;;;39.03;;
15451;SDS011;7827;53.594;9.938;2023-02-15T08:39:07;80.20;;;38.97;;
15451;SDS011;7827;53.594;9.938;2023-02-15T08:41:36;77.37;;;36.37;;
15451;SDS011;7827;53.594;9.938;2023-02-15T08:44:07;80.13;;;39.10;;
15451;SDS011;7827;53.594;9.938;2023-02-15T08:46:37;75.67;;;37.70;;
15451;SDS011;7827;53.594;9.938;2023-02-15T08:49:11;82.30;;;39.70;;
15451;SDS011;7827;53.594;9.938;2023-02-15T08:51:43;83.17;;;37.57;;
15451;SDS011;7827;53.594;9.938;2023-02-15T08:54:12;92.10;;;41.43;;
15451;SDS011;7827;53.594;9.938;2023-02-15T08:56:43;79.63;;;39.53;;
15451;SDS011;7827;53.594;9.938;2023-02-15T08:59:13;76.90;;;38.03;;
15451;SDS011;7827;53.594;9.938;2023-02-15T09:01:44;90.77;;;40.53;;
15451;SDS011;7827;53.594;9.938;2023-02-15T09:04:16;85.13;;;39.03;;
15451;SDS011;7827;53.594;9.938;2023-02-15T09:06:45;80.33;;;38.03;;
15451;SDS011;7827;53.594;9.938;2023-02-15T09:09:16;72.33;;;36.10;;
15451;SDS011;7827;53.594;9.938;2023-02-15T09:11:46;77.77;;;38.30;;
15451;SDS011;7827;53.594;9.938;2023-02-15T09:14:24;78.30;;;38.33;;
15451;SDS011;7827;53.594;9.938;2023-02-15T09:16:53;74.00;;;38.23;;
15451;SDS011;7827;53.594;9.938;2023-02-15T09:19:24;84.80;;;39.70;;
15451;SDS011;7827;53.594;9.938;2023-02-15T09:21:52;81.20;;;39.43;;
15451;SDS011;7827;53.594;9.938;2023-02-15T09:24:21;78.03;;;35.03;;
15451;SDS011;7827;53.594;9.938;2023-02-15T09:26:49;78.97;;;38.57;;
15451;SDS011;7827;53.594;9.938;2023-02-15T09:29:18;77.23;;;38.60;;
15451;SDS011;7827;53.594;9.938;2023-02-15T09:31:49;79.13;;;38.97;;
15451;SDS011;7827;53.594;9.938;2023-02-15T09:34:21;78.27;;;37.97;;
15451;SDS011;7827;53.594;9.938;2023-02-15T09:36:51;78.90;;;39.00;;
15451;SDS011;7827;53.594;9.938;2023-02-15T09:39:20;67.87;;;35.37;;
15451;SDS011;7827;53.594;9.938;2023-02-15T09:41:59;71.73;;;36.70;;
15451;SDS011;7827;53.594;9.938;2023-02-15T09:45:10;76.67;;;38.13;;
15451;SDS011;7827;53.594;9.938;2023-02-15T09:48:09;72.83;;;37.40;;
15451;SDS011;7827;53.594;9.938;2023-02-15T09:51:09;80.40;;;38.53;;
15451;SDS011;7827;53.594;9.938;2023-02-15T09:54:06;75.57;;;38.70;;
15451;SDS011;7827;53.594;9.938;2023-02-15T09:56:55;80.40;;;40.60;;
15451;SDS011;7827;53.594;9.938;2023-02-15T09:59:34;78.93;;;40.83;;
15451;SDS011;7827;53.594;9.938;2023-02-15T10:02:16;76.97;;;40.03;;
15451;SDS011;7827;53.594;9.938;2023-02-15T10:05:07;78.37;;;40.33;;
15451;SDS011;7827;53.594;9.938;2023-02-15T10:07:56;78.53;;;39.13;;
15451;SDS011;7827;53.594;9.938;2023-02-15T10:10:54;78.60;;;39.27;;
15451;SDS011;7827;53.594;9.938;2023-02-15T10:13:52;71.63;;;38.33;;
15451;SDS011;7827;53.594;9.938;2023-02-15T10:16:38;75.67;;;40.10;;
15451;SDS011;7827;53.594;9.938;2023-02-15T10:19:23;79.40;;;39.67;;
15451;SDS011;7827;53.594;9.938;2023-02-15T10:22:07;81.20;;;40.60;;
15451;SDS011;7827;53.594;9.938;2023-02-15T10:25:03;74.23;;;39.73;;
15451;SDS011;7827;53.594;9.938;2023-02-15T10:27:49;81.80;;;40.20;;
15451;SDS011;7827;53.594;9.938;2023-02-15T10:30:18;74.03;;;40.67;;
15451;SDS011;7827;53.594;9.938;2023-02-15T10:32:59;81.87;;;42.53;;
15451;SDS011;7827;53.594;9.938;2023-02-15T10:35:32;77.77;;;40.73;;
15451;SDS011;7827;53.594;9.938;2023-02-15T10:38:20;75.83;;;39.93;;
15451;SDS011;7827;53.594;9.938;2023-02-15T10:41:03;79.43;;;42.20;;
15451;SDS011;7827;53.594;9.938;2023-02-15T10:43:56;75.63;;;41.27;;
15451;SDS011;7827;53.594;9.938;2023-02-15T10:47:00;81.80;;;42.57;;
15451;SDS011;7827;53.594;9.938;2023-02-15T10:49:59;79.23;;;42.27;;
15451;SDS011;7827;53.594;9.938;2023-02-15T10:52:51;84.53;;;43.07;;
15451;SDS011;7827;53.594;9.938;2023-02-15T10:55:46;89.90;;;46.53;;
15451;SDS011;7827;53.594;9.938;2023-02-15T10:58:27;82.70;;;44.50;;
15451;SDS011;7827;53.594;9.938;2023-02-15T11:01:10;83.53;;;45.00;;
15451;SDS011;7827;53.594;9.938;2023-02-15T11:03:54;87.77;;;45.77;;
15451;SDS011;7827;53.594;9.938;2023-02-15T11:06:53;85.90;;;45.63;;
15451;SDS011;7827;53.594;9.938;2023-02-15T11:09:29;86.90;;;45.50;;
15451;SDS011;7827;53.594;9.938;2023-02-15T11:12:09;90.97;;;46.87;;
15451;SDS011;7827;53.594;9.938;2023-02-15T11:14:46;83.73;;;46.33;;
15451;SDS011;7827;53.594;9.938;2023-02-15T11:17:22;88.17;;;46.57;;
15451;SDS011;7827;53.594;9.938;2023-02-15T11:20:02;87.83;;;48.27;;
15451;SDS011;7827;53.594;9.938;2023-02-15T11:22:46;82.40;;;44.93;;
15451;SDS011;7827;53.594;9.938;2023-02-15T11:25:20;79.27;;;45.07;;
15451;SDS011;7827;53.594;9.938;2023-02-15T11:27:53;85.23;;;45.50;;
15451;SDS011;7827;53.594;9.938;2023-02-15T11:30:25;79.50;;;44.93;;
15451;SDS011;7827;53.594;9.938;2023-02-15T11:33:12;72.70;;;43.00;;
15451;SDS011;7827;53.594;9.938;2023-02-15T11:35:49;73.80;;;42.93;;
15451;SDS011;7827;53.594;9.938;2023-02-15T11:38:23;75.97;;;43.33;;
15451;SDS011;7827;53.594;9.938;2023-02-15T11:40:57;66.77;;;41.47;;
15451;SDS011;7827;53.594;9.938;2023-02-15T11:43:33;68.67;;;43.00;;
15451;SDS011;7827;53.594;9.938;2023-02-15T11:46:10;72.73;;;41.57;;
15451;SDS011;7827;53.594;9.938;2023-02-15T11:48:41;64.37;;;40.83;;
15451;SDS011;7827;53.594;9.938;2023-02-15T11:51:11;64.87;;;39.30;;
15451;SDS011;7827;53.594;9.938;2023-02-15T11:53:43;65.73;;;40.70;;
15451;SDS011;7827;53.594;9.938;2023-02-15T11:56:14;67.00;;;42.10;;
15451;SDS011;7827;53.594;9.938;2023-02-15T11:58:44;67.60;;;40.60;;
15451;SDS011;7827;53.594;9.938;2023-02-15T12:01:21;71.97;;;42.20;;
15451;SDS011;7827;53.594;9.938;2023-02-15T12:03:58;68.63;;;40.00;;
15451;SDS011;7827;53.594;9.938;2023-02-15T12:06:34;63.53;;;40.53;;
15451;SDS011;7827;53.594;9.938;2023-02-15T12:09:13;69.33;;;41.30;;
15451;SDS011;7827;53.594;9.938;2023-02-15T12:11:53;61.70;;;38.60;;
15451;SDS011;7827;53.594;9.938;2023-02-15T12:14:21;71.93;;;40.70;;
15451;SDS011;7827;53.594;9.938;2023-02-15T12:16:51;67.50;;;42.03;;
15451;SDS011;7827;53.594;9.938;2023-02-15T12:19:29;65.97;;;40.73;;
15451;SDS011;7827;53.594;9.938;2023-02-15T12:22:04;59.93;;;38.83;;
15451;SDS011;7827;53.594;9.938;2023-02-15T12:24:45;62.53;;;39.37;;
15451;SDS011;7827;53.594;9.938;2023-02-15T12:27:16;65.33;;;40.13;;
15451;SDS011;7827;53.594;9.938;2023-02-15T12:29:49;63.80;;;40.37;;
15451;SDS011;7827;53.594;9.938;2023-02-15T12:32:23;60.63;;;39.83;;
15451;SDS011;7827;53.594;9.938;2023-02-15T12:34:55;65.93;;;41.27;;
15451;SDS011;7827;53.594;9.938;2023-02-15T12:37:34;62.60;;;39.60;;
15451;SDS011;7827;53.594;9.938;2023-02-15T12:40:19;70.30;;;41.37;;
15451;SDS011;7827;53.594;9.938;2023-02-15T12:42:50;65.57;;;40.97;;
15451;SDS011;7827;53.594;9.938;2023-02-15T12:45:20;62.07;;;40.20;;
15451;SDS011;7827;53.594;9.938;2023-02-15T12:50:45;67.13;;;40.03;;
15451;SDS011;7827;53.594;9.938;2023-02-15T12:53:23;60.73;;;39.53;;
15451;SDS011;7827;53.594;9.938;2023-02-15T12:56:00;64.63;;;39.30;;
15451;SDS011;7827;53.594;9.938;2023-02-15T12:58:31;58.50;;;39.13;;
15451;SDS011;7827;53.594;9.938;2023-02-15T13:01:02;60.67;;;39.53;;
15451;SDS011;7827;53.594;9.938;2023-02-15T13:03:50;60.27;;;39.27;;
15451;SDS011;7827;53.594;9.938;2023-02-15T13:06:25;56.43;;;38.07;;
15451;SDS011;7827;53.594;9.938;2023-02-15T13:08:57;56.53;;;37.17;;
15451;SDS011;7827;53.594;9.938;2023-02-15T13:11:33;64.67;;;38.67;;
15451;SDS011;7827;53.594;9.938;2023-02-15T13:14:15;55.87;;;37.53;;
15451;SDS011;7827;53.594;9.938;2023-02-15T13:16:47;52.97;;;36.57;;
15451;SDS011;7827;53.594;9.938;2023-02-15T13:19:22;51.57;;;34.83;;
15451;SDS011;7827;53.594;9.938;2023-02-15T13:22:02;50.93;;;36.57;;
15451;SDS011;7827;53.594;9.938;2023-02-15T13:24:39;51.17;;;35.70;;
15451;SDS011;7827;53.594;9.938;2023-02-15T13:27:12;53.53;;;35.17;;
15451;SDS011;7827;53.594;9.938;2023-02-15T13:29:46;51.37;;;35.77;;
15451;SDS011;7827;53.594;9.938;2023-02-15T13:32:24;52.97;;;36.07;;
15451;SDS011;7827;53.594;9.938;2023-02-15T13:34:59;51.37;;;34.40;;
15451;SDS011;7827;53.594;9.938;2023-02-15T13:37:45;53.93;;;35.93;;
15451;SDS011;7827;53.594;9.938;2023-02-15T13:40:36;47.70;;;34.63;;
15451;SDS011;7827;53.594;9.938;2023-02-15T13:43:19;51.60;;;36.23;;
15451;SDS011;7827;53.594;9.938;2023-02-15T13:46:03;53.97;;;35.03;;
15451;SDS011;7827;53.594;9.938;2023-02-15T13:48:59;50.80;;;34.53;;
15451;SDS011;7827;53.594;9.938;2023-02-15T13:51:45;48.70;;;34.37;;
15451;SDS011;7827;53.594;9.938;2023-02-15T13:57:40;50.38;;;34.67;;
15451;SDS011;7827;53.594;9.938;2023-02-15T14:00:25;52.30;;;34.73;;
15451;SDS011;7827;53.594;9.938;2023-02-15T14:06:08;54.42;;;36.45;;
15451;SDS011;7827;53.594;9.938;2023-02-15T14:09:02;51.55;;;35.30;;
15451;SDS011;7827;53.594;9.938;2023-02-15T14:11:48;51.60;;;35.80;;
15451;SDS011;7827;53.594;9.938;2023-02-15T14:17:44;48.92;;;33.47;;
15451;SDS011;7827;53.594;9.938;2023-02-15T14:20:24;49.28;;;34.40;;
15451;SDS011;7827;53.594;9.938;2023-02-15T14:23:04;49.53;;;33.80;;
15451;SDS011;7827;53.594;9.938;2023-02-15T14:25:45;52.97;;;34.22;;
15451;SDS011;7827;53.594;9.938;2023-02-15T14:28:22;48.93;;;32.97;;
15451;SDS011;7827;53.594;9.938;2023-02-15T14:30:58;49.20;;;34.27;;
15451;SDS011;7827;53.594;9.938;2023-02-15T14:33:30;48.28;;;33.33;;
15451;SDS011;7827;53.594;9.938;2023-02-15T14:36:03;47.75;;;33.38;;
15451;SDS011;7827;53.594;9.938;2023-02-15T14:41:36;48.17;;;34.20;;
15451;SDS011;7827;53.594;9.938;2023-02-15T14:44:12;43.15;;;32.40;;
15451;SDS011;7827;53.594;9.938;2023-02-15T14:46:50;46.50;;;33.00;;
15451;SDS011;7827;53.594;9.938;2023-02-15T14:49:30;46.28;;;33.42;;
15451;SDS011;7827;53.594;9.938;2023-02-15T14:52:03;44.20;;;32.92;;
15451;SDS011;7827;53.594;9.938;2023-02-15T14:54:57;46.95;;;31.45;;
15451;SDS011;7827;53.594;9.938;2023-02-15T14:57:37;49.35;;;35.20;;
15451;SDS011;7827;53.594;9.938;2023-02-15T15:03:16;46.97;;;31.48;;
15451;SDS011;7827;53.594;9.938;2023-02-15T15:05:51;50.33;;;33.47;;
15451;SDS011;7827;53.594;9.938;2023-02-15T15:08:29;41.70;;;29.70;;
15451;SDS011;7827;53.594;9.938;2023-02-15T15:17:10;42.13;;;31.10;;
15451;SDS011;7827;53.594;9.938;2023-02-15T15:22:40;44.58;;;31.25;;
15451;SDS011;7827;53.594;9.938;2023-02-15T15:25:11;43.80;;;30.60;;
15451;SDS011;7827;53.594;9.938;2023-02-15T15:28:09;44.23;;;30.17;;
15451;SDS011;7827;53.594;9.938;2023-02-15T15:31:20;40.30;;;30.15;;
15451;SDS011;7827;53.594;9.938;2023-02-15T15:34:09;41.28;;;30.33;;
15451;SDS011;7827;53.594;9.938;2023-02-15T15:40:30;43.93;;;31.90;;
15451;SDS011;7827;53.594;9.938;2023-02-15T15:43:29;46.45;;;31.92;;
15451;SDS011;7827;53.594;9.938;2023-02-15T15:46:37;46.63;;;31.48;;
15451;SDS011;7827;53.594;9.938;2023-02-15T15:49:36;44.58;;;30.15;;
15451;SDS011;7827;53.594;9.938;2023-02-15T15:52:10;39.42;;;29.65;;
15451;SDS011;7827;53.594;9.938;2023-02-15T15:54:44;48.17;;;30.77;;
15451;SDS011;7827;53.594;9.938;2023-02-15T15:57:26;42.47;;;30.13;;
15451;SDS011;7827;53.594;9.938;2023-02-15T15:59:58;43.80;;;29.57;;